METAR Data
IDs: Format: Raw Decoded Include TAF

Data at: 0621 UTC 24 Sep 2020

KRNT 240553Z AUTO 16007KT 130V190 10SM FEW016 SCT021 16/13 A2978 RMK AO2 RAE08 SLP088 P0000 60013 T01560133 10172 20156 51012
No TAF found for KRNT